Time;durP1;ratioP1;P1;durP2;ratioP2;P2;SDS_P1;SDS_P2;PMS_P1;PMS_P2;Temp;Humidity;BMP_temperature;BMP_pressure;BME280_temperature;BME280_humidity;BME280_pressure;Samples;Min_cycle;Max_cycle;Signal;HPM_P1;HPM_P2
2021/08/31 00:01:26;;;;;;;17.95;13.20;;;;;;;13.88;88.11;99654.02;2177161;79;21040;-90
2021/08/31 00:04:28;;;;;;;18.12;13.22;;;;;;;13.88;88.21;99662.02;2165099;80;21021;-88
2021/08/31 00:07:29;;;;;;;15.80;12.10;;;;;;;13.88;88.17;99656.68;2151396;81;21062;-91
2021/08/31 00:10:30;;;;;;;16.50;11.83;;;;;;;13.88;88.23;99663.34;2152370;81;21506;-89
2021/08/31 00:13:31;;;;;;;13.85;11.60;;;;;;;13.89;88.25;99656.98;2161355;81;21058;-88
2021/08/31 00:16:33;;;;;;;15.38;11.57;;;;;;;13.88;88.31;99650.02;2152287;80;21012;-88
2021/08/31 00:19:34;;;;;;;15.15;10.80;;;;;;;13.88;88.38;99655.34;2151764;81;20977;-89
2021/08/31 00:22:35;;;;;;;12.47;10.10;;;;;;;13.88;88.37;99662.50;2174934;81;20992;-90
2021/08/31 00:25:36;;;;;;;12.65;9.18;;;;;;;13.88;88.45;99662.02;2152905;80;20994;-89
2021/08/31 00:28:37;;;;;;;13.72;8.80;;;;;;;13.89;88.45;99668.98;2170761;81;21055;-90
2021/08/31 00:31:38;;;;;;;9.80;7.83;;;;;;;13.92;88.37;99662.95;2130042;81;21048;-89
2021/08/31 00:34:39;;;;;;;8.15;7.30;;;;;;;13.93;88.35;99661.40;2156512;80;21029;-88
2021/08/31 00:37:40;;;;;;;8.25;7.12;;;;;;;13.97;88.32;99659.17;2174301;80;21055;-88
2021/08/31 00:40:41;;;;;;;7.87;6.60;;;;;;;13.99;88.21;99658.44;2152133;81;20975;-88
2021/08/31 00:43:48;;;;;;;6.92;6.22;;;;;;;14.02;88.12;99660.70;2153743;80;21404;-91
2021/08/31 00:46:52;;;;;;;7.92;5.95;;;;;;;14.04;88.07;99666.67;2164656;81;21063;-89
2021/08/31 00:49:53;;;;;;;8.68;5.85;;;;;;;14.05;88.01;99662.48;2152896;81;21082;-88
2021/08/31 00:52:54;;;;;;;7.35;6.00;;;;;;;14.05;88.02;99660.30;2181821;81;20983;-89
2021/08/31 00:55:55;;;;;;;7.15;5.75;;;;;;;14.07;87.98;99656.41;2174536;80;21038;-89
2021/08/31 00:58:56;;;;;;;7.50;5.47;;;;;;;14.08;87.99;99655.41;2173235;81;21448;-88
2021/08/31 01:01:58;;;;;;;5.15;4.65;;;;;;;14.10;88.00;99664.02;2173441;81;21027;-89
2021/08/31 01:05:00;;;;;;;5.08;4.58;;;;;;;14.12;87.95;99649.16;2171040;81;20990;-89
2021/08/31 01:08:01;;;;;;;5.92;4.70;;;;;;;14.12;87.92;99653.16;2153775;81;21060;-89
2021/08/31 01:11:03;;;;;;;5.33;4.83;;;;;;;14.12;87.95;99661.16;2154566;81;21022;-90
2021/08/31 01:14:07;;;;;;;5.40;4.80;;;;;;;14.12;88.00;99656.64;2170715;81;21001;-88
2021/08/31 01:17:08;;;;;;;12.20;5.35;;;;;;;14.12;87.94;99657.16;2167645;80;21517;-89
2021/08/31 01:20:11;;;;;;;5.75;4.92;;;;;;;14.12;87.96;99662.49;2142074;81;21581;-91
2021/08/31 01:23:14;;;;;;;5.97;5.45;;;;;;;14.13;88.01;99658.30;2160556;81;20992;-89
2021/08/31 01:26:16;;;;;;;6.20;5.45;;;;;;;14.13;88.01;99662.31;2143624;81;21056;-89
2021/08/31 01:29:17;;;;;;;5.60;5.00;;;;;;;14.13;88.07;99657.45;2156331;80;21075;-88
2021/08/31 01:32:19;;;;;;;9.90;5.33;;;;;;;14.13;88.06;99659.64;2149081;80;21506;-89
2021/08/31 01:35:20;;;;;;;6.33;5.67;;;;;;;14.14;88.05;99659.13;2161988;81;21018;-91
2021/08/31 01:38:21;;;;;;;7.80;5.53;;;;;;;14.15;88.08;99657.27;2165275;81;21640;-89
2021/08/31 01:41:25;;;;;;;6.00;5.40;;;;;;;14.14;88.09;99655.12;2164064;80;21035;-90
2021/08/31 01:44:26;;;;;;;7.33;5.90;;;;;;;14.14;88.14;99652.45;2161525;81;20999;-90
2021/08/31 01:47:27;;;;;;;7.78;6.22;;;;;;;14.15;88.16;99650.60;2162350;81;21029;-89
2021/08/31 01:50:28;;;;;;;7.20;6.50;;;;;;;14.16;88.21;99647.72;2160691;81;20999;-90
2021/08/31 01:53:29;;;;;;;6.87;6.08;;;;;;;14.16;88.22;99662.39;2178539;81;20995;-89
2021/08/31 01:56:30;;;;;;;6.37;5.78;;;;;;;14.16;88.24;99657.57;2156951;81;21049;-88
2021/08/31 01:59:31;;;;;;;7.40;6.50;;;;;;;14.16;88.22;99655.72;2165990;80;21055;-90
2021/08/31 02:02:32;;;;;;;7.12;6.42;;;;;;;14.15;88.27;99658.61;2153581;81;21000;-89
2021/08/31 02:05:33;;;;;;;8.33;5.92;;;;;;;14.14;88.29;99652.45;2154200;81;20984;-89
2021/08/31 02:08:34;;;;;;;7.37;6.60;;;;;;;14.15;88.42;99652.75;2179214;80;21473;-89
2021/08/31 02:11:35;;;;;;;10.48;6.72;;;;;;;14.14;88.45;99648.45;2181119;81;21771;-88
2021/08/31 02:14:37;;;;;;;7.35;6.55;;;;;;;14.15;88.46;99650.09;2181303;81;21032;-88
2021/08/31 02:17:39;;;;;;;8.83;6.25;;;;;;;14.15;88.48;99652.75;2180273;81;21091;-88
2021/08/31 02:20:40;;;;;;;8.58;7.35;;;;;;;14.15;88.56;99640.75;2164037;80;20987;-89
2021/08/31 02:23:42;;;;;;;7.17;6.42;;;;;;;14.16;88.58;99642.37;2147742;81;21075;-89
2021/08/31 02:26:43;;;;;;;8.70;7.28;;;;;;;14.16;88.53;99638.89;2153298;81;21043;-88
2021/08/31 02:29:44;;;;;;;7.33;6.62;;;;;;;14.17;88.51;99644.05;2149048;81;21028;-89
2021/08/31 02:32:48;;;;;;;7.67;6.83;;;;;;;14.17;88.50;99644.05;2148904;80;21003;-88
2021/08/31 02:35:49;;;;;;;7.60;6.80;;;;;;;14.17;88.52;99637.38;2167636;80;21584;-90
2021/08/31 02:38:50;;;;;;;9.00;6.87;;;;;;;14.17;88.51;99640.05;2168250;80;21473;-89
2021/08/31 02:41:51;;;;;;;7.40;6.05;;;;;;;14.18;88.52;99637.67;2184112;81;20979;-88
2021/08/31 02:44:53;;;;;;;7.20;6.42;;;;;;;14.19;88.58;99631.33;2173865;81;21032;-88
2021/08/31 02:47:54;;;;;;;6.80;5.85;;;;;;;14.19;88.60;99635.33;2190924;79;21474;-89
2021/08/31 02:50:56;;;;;;;7.25;6.00;;;;;;;14.20;88.67;99631.63;2175239;81;21113;-90
2021/08/31 02:53:57;;;;;;;6.10;5.50;;;;;;;14.19;88.98;99636.67;2155979;81;21045;-89
2021/08/31 02:56:58;;;;;;;6.60;5.85;;;;;;;14.18;88.96;99628.33;2167319;79;20996;-90
2021/08/31 03:00:00;;;;;;;6.58;5.90;;;;;;;14.18;88.90;99625.66;2172345;81;20978;-90
2021/08/31 03:03:01;;;;;;;6.45;5.85;;;;;;;14.19;88.92;99635.82;2180168;81;21042;-89
2021/08/31 03:06:02;;;;;;;8.48;6.30;;;;;;;14.20;88.95;99639.63;2181352;79;21024;-89
2021/08/31 03:09:03;;;;;;;6.47;5.67;;;;;;;14.22;88.97;99626.08;2160153;79;21004;-89
2021/08/31 03:12:06;;;;;;;7.30;5.97;;;;;;;14.21;89.00;99623.92;2169042;81;21042;-89
2021/08/31 03:15:08;;;;;;;6.15;4.92;;;;;;;14.22;89.00;99630.08;2168772;80;21465;-89
2021/08/31 03:18:09;;;;;;;5.67;5.17;;;;;;;14.21;88.98;99629.78;2150458;81;21101;-89
2021/08/31 03:21:10;;;;;;;8.40;5.97;;;;;;;14.21;88.94;99631.93;2185547;81;20998;-88
2021/08/31 03:24:11;;;;;;;6.17;5.20;;;;;;;14.19;89.02;99624.66;2165512;80;21059;-89
2021/08/31 03:27:12;;;;;;;5.15;4.62;;;;;;;14.20;89.25;99628.14;2153813;81;21464;-90
2021/08/31 03:30:14;;;;;;;5.75;5.15;;;;;;;14.18;88.99;99636.34;2125967;82;21140;-88
2021/08/31 03:33:15;;;;;;;4.90;4.40;;;;;;;14.18;89.03;99624.33;2144004;81;21008;-89
2021/08/31 03:36:16;;;;;;;4.95;4.55;;;;;;;14.18;89.04;99631.00;2142297;81;21572;-90
2021/08/31 03:39:17;;;;;;;4.45;4.00;;;;;;;14.18;88.99;99632.34;2159066;81;20994;-90
2021/08/31 03:42:18;;;;;;;4.28;3.98;;;;;;;14.18;88.93;99635.00;2150327;81;21062;-91
2021/08/31 03:45:19;;;;;;;4.08;3.77;;;;;;;14.16;88.96;99633.04;2146675;81;21521;-89
2021/08/31 03:48:21;;;;;;;5.45;4.20;;;;;;;14.16;88.97;99637.05;2161700;82;21033;-89
2021/08/31 03:51:22;;;;;;;5.22;3.47;;;;;;;14.15;88.89;99633.27;2136339;82;20982;-89
2021/08/31 03:54:23;;;;;;;3.95;3.52;;;;;;;14.15;88.93;99637.26;2145487;81;20980;-88
2021/08/31 03:57:24;;;;;;;4.78;3.75;;;;;;;14.14;88.95;99640.45;2116036;82;21030;-89
2021/08/31 04:00:25;;;;;;;4.00;3.60;;;;;;;14.12;89.12;99638.48;2107673;83;20994;-89
2021/08/31 04:03:26;;;;;;;3.65;3.35;;;;;;;14.10;89.10;99636.52;2116322;81;21294;-89
2021/08/31 04:06:27;;;;;;;4.17;3.75;;;;;;;14.11;89.08;99643.52;2143958;81;21066;-89
2021/08/31 04:09:28;;;;;;;4.22;2.85;;;;;;;14.08;89.14;99635.41;2137590;82;21545;-88
2021/08/31 04:12:29;;;;;;;5.87;3.45;;;;;;;14.06;89.19;99639.30;2130222;82;21013;-88
2021/08/31 04:15:30;;;;;;;3.25;2.83;;;;;;;14.03;89.17;99637.03;2143572;82;21031;-89
2021/08/31 04:18:31;;;;;;;4.50;3.42;;;;;;;14.01;89.33;99633.73;2149179;81;20975;-90
2021/08/31 04:21:32;;;;;;;3.42;2.92;;;;;;;13.99;89.29;99632.59;2150406;81;20988;-89
2021/08/31 04:24:34;;;;;;;3.10;2.80;;;;;;;13.99;89.27;99632.59;2161067;82;21018;-89
2021/08/31 04:27:35;;;;;;;3.90;3.30;;;;;;;13.98;89.42;99639.47;2151355;81;20990;-89
2021/08/31 04:30:36;;;;;;;6.05;3.02;;;;;;;13.96;89.49;99643.66;2142101;81;21054;-90
2021/08/31 04:33:37;;;;;;;3.40;3.10;;;;;;;13.95;89.47;99641.20;2114734;82;21011;-89
2021/08/31 04:36:38;;;;;;;3.75;3.45;;;;;;;13.94;89.60;99632.88;2126659;82;21120;-90
2021/08/31 04:39:39;;;;;;;3.45;3.15;;;;;;;13.94;89.56;99636.39;2109342;82;21044;-89
2021/08/31 04:42:40;;;;;;;3.47;3.17;;;;;;;13.96;89.60;99634.84;2134140;82;21039;-89
2021/08/31 04:45:42;;;;;;;4.05;3.55;;;;;;;13.95;89.61;99644.69;2131065;82;21530;-89
2021/08/31 04:48:43;;;;;;;3.52;3.22;;;;;;;13.96;89.71;99641.51;2133172;82;21079;-91
2021/08/31 04:51:44;;;;;;;3.25;2.95;;;;;;;13.94;90.00;99647.06;2134389;82;21517;-89
2021/08/31 04:54:45;;;;;;;3.62;3.22;;;;;;;13.95;89.73;99643.36;2138058;82;21501;-86
2021/08/31 04:57:46;;;;;;;3.42;2.90;;;;;;;13.94;90.00;99644.88;2123046;82;20930;-87
2021/08/31 05:00:47;;;;;;;3.62;3.30;;;;;;;13.93;89.89;99643.24;2118940;82;21504;-87
2021/08/31 05:03:48;;;;;;;3.30;3.00;;;;;;;13.94;90.04;99646.21;2132113;81;20993;-86
2021/08/31 05:06:49;;;;;;;3.58;3.05;;;;;;;13.94;89.96;99646.21;2130610;82;21471;-87
2021/08/31 05:09:51;;;;;;;4.50;3.40;;;;;;;13.95;89.94;99646.54;2126287;82;21009;-87
2021/08/31 05:12:52;;;;;;;4.58;3.00;;;;;;;13.97;89.99;99645.33;2137715;82;21017;-87
2021/08/31 05:15:53;;;;;;;7.28;2.98;;;;;;;13.99;89.94;99646.44;2135746;82;20939;-87
2021/08/31 05:18:57;;;;;;;3.17;2.70;;;;;;;13.99;90.05;99641.11;2144032;82;21035;-87
2021/08/31 05:22:00;;;;;;;4.83;2.40;;;;;;;14.01;90.02;99647.07;2139313;82;21874;-89
2021/08/31 05:25:04;;;;;;;2.77;2.25;;;;;;;14.02;90.03;99643.37;2110267;82;20982;-87
2021/08/31 05:28:05;;;;;;;2.50;2.30;;;;;;;14.02;90.10;99644.70;2119051;82;21506;-87
2021/08/31 05:31:06;;;;;;;2.00;1.90;;;;;;;14.03;90.10;99640.52;2132944;82;21466;-87
2021/08/31 05:34:07;;;;;;;1.90;1.80;;;;;;;14.05;90.24;99649.15;2133756;82;21036;-86
2021/08/31 05:37:09;;;;;;;2.35;2.10;;;;;;;14.06;90.42;99645.97;2157652;80;20968;-87
2021/08/31 05:40:11;;;;;;;2.33;2.17;;;;;;;14.03;90.39;99653.85;2174038;80;21009;-86
2021/08/31 05:43:13;;;;;;;4.17;1.85;;;;;;;14.05;90.38;99654.97;2140316;81;21023;-89
2021/08/31 05:46:14;;;;;;;2.30;1.95;;;;;;;14.05;90.54;99650.48;2133498;81;21019;-89
2021/08/31 05:49:15;;;;;;;1.90;1.80;;;;;;;14.06;90.66;99656.63;2132533;82;20996;-89
2021/08/31 05:52:16;;;;;;;2.67;2.10;;;;;;;14.08;90.78;99656.75;2129617;82;21003;-88
2021/08/31 05:55:18;;;;;;;2.47;2.30;;;;;;;14.09;91.02;99653.56;2141657;81;20985;-88
2021/08/31 05:58:19;;;;;;;2.20;2.10;;;;;;;14.11;90.87;99655.01;2169049;80;21077;-87
2021/08/31 06:01:20;;;;;;;4.08;2.40;;;;;;;14.14;90.87;99656.45;2165670;80;20983;-86
2021/08/31 06:04:22;;;;;;;3.12;2.90;;;;;;;14.16;90.98;99661.58;2181247;80;21053;-86
2021/08/31 06:07:26;;;;;;;3.98;3.58;;;;;;;14.16;91.00;99666.39;2182005;80;21027;-86
2021/08/31 06:10:27;;;;;;;2.85;2.60;;;;;;;14.17;90.98;99672.05;2172490;80;21024;-86
2021/08/31 06:13:28;;;;;;;3.87;3.58;;;;;;;14.21;90.98;99673.80;2170717;80;21536;-87
2021/08/31 06:16:29;;;;;;;5.30;4.78;;;;;;;14.24;91.08;99670.73;2184562;80;20967;-87
2021/08/31 06:19:30;;;;;;;5.22;4.37;;;;;;;14.25;91.08;99674.55;2174377;80;21027;-87
2021/08/31 06:22:32;;;;;;;5.28;4.78;;;;;;;14.32;91.08;99670.55;2155520;80;21473;-88
2021/08/31 06:25:33;;;;;;;5.62;4.75;;;;;;;14.40;91.35;99669.55;2177726;80;21026;-89
2021/08/31 06:28:34;;;;;;;4.85;4.40;;;;;;;14.41;91.31;99669.33;2169134;80;21029;-87
2021/08/31 06:31:35;;;;;;;4.10;3.70;;;;;;;14.45;91.15;99667.91;2185632;80;20970;-86
2021/08/31 06:34:36;;;;;;;5.60;4.58;;;;;;;14.46;91.24;99671.40;2175754;80;21009;-88
2021/08/31 06:37:37;;;;;;;8.43;4.90;;;;;;;14.49;91.20;99677.15;2119459;82;21020;-88
2021/08/31 06:40:38;;;;;;;6.60;5.10;;;;;;;14.50;91.42;99673.47;2136036;82;21016;-86
2021/08/31 06:43:39;;;;;;;5.65;5.08;;;;;;;14.50;91.07;99677.96;2094877;84;21063;-87
2021/08/31 06:46:41;;;;;;;6.85;6.15;;;;;;;14.51;91.09;99688.97;2089952;83;21028;-86
2021/08/31 06:49:42;;;;;;;8.75;6.33;;;;;;;14.51;91.09;99682.30;2096866;83;21529;-88
2021/08/31 06:52:46;;;;;;;7.08;6.37;;;;;;;14.49;91.00;99681.67;2093197;84;21478;-88
2021/08/31 06:55:47;;;;;;;9.20;7.47;;;;;;;14.48;91.21;99682.70;2097073;83;21747;-87
2021/08/31 06:58:49;;;;;;;8.45;6.85;;;;;;;14.49;91.19;99681.67;2110895;82;20979;-86
2021/08/31 07:01:50;;;;;;;11.33;7.28;;;;;;;14.52;91.49;99690.64;2129853;82;21102;-87
2021/08/31 07:04:52;;;;;;;9.33;7.85;;;;;;;14.54;91.29;99689.93;2102694;83;20995;-88
2021/08/31 07:07:54;;;;;;;9.85;8.23;;;;;;;14.57;91.40;99693.52;2109938;83;21003;-87
2021/08/31 07:10:56;;;;;;;10.93;9.43;;;;;;;14.61;91.53;99693.41;2114079;82;21646;-88
2021/08/31 07:13:58;;;;;;;11.33;9.73;;;;;;;14.66;91.30;99698.16;2142958;82;21018;-87
2021/08/31 07:16:59;;;;;;;12.37;10.75;;;;;;;14.73;91.34;99700.34;2141311;82;21034;-88
2021/08/31 07:20:00;;;;;;;14.10;11.10;;;;;;;14.79;91.37;99689.65;2143428;82;21064;-88
2021/08/31 07:23:01;;;;;;;10.75;8.90;;;;;;;14.86;91.25;99696.84;2095482;84;21043;-88
2021/08/31 07:26:02;;;;;;;7.80;6.70;;;;;;;14.90;91.13;99695.42;2138855;82;20989;-88
2021/08/31 07:29:04;;;;;;;6.62;6.03;;;;;;;14.94;91.16;99692.62;2135379;82;21472;-86
2021/08/31 07:32:06;;;;;;;5.87;5.28;;;;;;;14.99;91.21;99702.19;2142244;82;21037;-87
2021/08/31 07:35:10;;;;;;;5.83;5.33;;;;;;;14.98;91.03;99708.05;2148222;80;21422;-87
2021/08/31 07:38:11;;;;;;;7.78;6.30;;;;;;;15.04;91.17;99690.90;2193894;79;21092;-88
2021/08/31 07:41:12;;;;;;;6.60;5.87;;;;;;;15.12;91.22;99703.53;2185214;79;21467;-87
2021/08/31 07:44:14;;;;;;;9.35;6.40;;;;;;;15.22;91.25;99697.23;2194592;80;20983;-86
2021/08/31 07:47:15;;;;;;;11.85;6.47;;;;;;;15.39;91.27;99697.63;2191495;80;20995;-86
2021/08/31 07:50:16;;;;;;;6.70;5.20;;;;;;;15.54;91.20;99695.23;2180369;79;21058;-87
2021/08/31 07:53:18;;;;;;;6.17;5.58;;;;;;;15.75;91.15;99707.05;2177902;80;21007;-87
2021/08/31 07:56:19;;;;;;;5.47;4.97;;;;;;;15.84;90.46;99700.95;2181065;79;21272;-88
2021/08/31 07:59:20;;;;;;;8.15;5.40;;;;;;;15.88;90.05;99703.48;2197420;80;20966;-88
2021/08/31 08:02:22;;;;;;;4.80;4.40;;;;;;;15.89;89.76;99717.19;2184803;80;21033;-89
2021/08/31 08:05:23;;;;;;;4.65;4.20;;;;;;;15.85;89.61;99718.14;2180255;80;21503;-87
2021/08/31 08:08:24;;;;;;;4.75;4.33;;;;;;;15.82;89.49;99717.72;2182516;80;21007;-86
2021/08/31 08:11:25;;;;;;;4.53;4.03;;;;;;;15.77;89.38;99715.69;2188040;80;20993;-88
2021/08/31 08:14:27;;;;;;;4.62;4.20;;;;;;;15.70;89.28;99721.56;2187750;80;21455;-88
2021/08/31 08:17:28;;;;;;;4.90;4.50;;;;;;;15.63;89.26;99726.09;2188096;80;21092;-87
2021/08/31 08:20:30;;;;;;;5.47;4.75;;;;;;;15.63;89.49;99726.91;2176656;80;21085;-87
2021/08/31 08:23:31;;;;;;;5.15;4.42;;;;;;;15.63;89.61;99724.75;2187406;80;20979;-87
2021/08/31 08:26:32;;;;;;;4.45;4.05;;;;;;;15.65;89.59;99726.19;2186724;80;21637;-87
2021/08/31 08:29:37;;;;;;;5.03;4.08;;;;;;;15.62;89.51;99731.92;2182593;80;21034;-87
2021/08/31 08:32:38;;;;;;;6.85;4.17;;;;;;;15.57;89.40;99738.93;2186465;80;20987;-88
2021/08/31 08:35:39;;;;;;;4.58;4.15;;;;;;;15.56;89.64;99741.31;2174647;79;21019;-87
2021/08/31 08:38:41;;;;;;;4.53;4.12;;;;;;;15.51;89.54;99741.92;2139652;81;21024;-88
2021/08/31 08:41:42;;;;;;;5.87;4.08;;;;;;;15.51;89.69;99747.27;2144157;81;21096;-86
2021/08/31 08:44:44;;;;;;;4.40;4.00;;;;;;;15.52;89.80;99748.12;2117142;81;21077;-87
2021/08/31 08:47:46;;;;;;;6.17;4.40;;;;;;;15.47;89.87;99745.53;2148489;81;20954;-88
2021/08/31 08:50:49;;;;;;;3.90;3.58;;;;;;;15.49;89.90;99743.19;2132393;82;21464;-87
2021/08/31 08:53:50;;;;;;;5.15;4.28;;;;;;;15.50;89.93;99742.14;2147398;81;21508;-87
2021/08/31 08:56:54;;;;;;;5.00;4.50;;;;;;;15.54;90.02;99751.38;2112771;81;21463;-88
2021/08/31 08:59:56;;;;;;;4.10;3.70;;;;;;;15.55;89.91;99748.52;2107855;83;21014;-87
2021/08/31 09:02:57;;;;;;;4.30;3.50;;;;;;;15.60;90.05;99755.92;2102514;83;20997;-87
2021/08/31 09:06:15;;;;;;;4.70;3.40;;;;;;;15.66;90.07;99767.94;2107224;83;20993;-88
2021/08/31 09:09:16;;;;;;;4.33;3.08;;;;;;;15.68;89.88;99764.58;2101517;83;21407;-87
2021/08/31 09:12:34;;;;;;;2.90;2.70;;;;;;;15.71;89.83;99762.00;2148381;81;21486;-87
2021/08/31 09:15:39;;;;;;;3.40;3.10;;;;;;;15.73;89.78;99763.12;2145738;81;21692;-86
2021/08/31 09:18:53;;;;;;;3.02;2.83;;;;;;;15.75;89.72;99762.40;2152103;81;21001;-87
2021/08/31 09:22:25;;;;;;;2.80;2.60;;;;;;;15.79;89.82;99756.92;2141005;82;20974;-88
2021/08/31 09:25:40;;;;;;;2.45;2.25;;;;;;;15.89;90.09;99757.32;2142285;81;21026;-87
2021/08/31 09:28:43;;;;;;;4.60;2.40;;;;;;;15.95;89.86;99761.83;2145738;81;20964;-89
2021/08/31 09:31:52;;;;;;;2.55;2.35;;;;;;;16.00;89.87;99764.70;2150949;81;20984;-88
2021/08/31 09:34:54;;;;;;;3.30;3.00;;;;;;;16.04;89.68;99759.73;2107000;82;20969;-87
2021/08/31 09:37:59;;;;;;;4.50;2.77;;;;;;;16.03;89.57;99755.43;2116441;82;21061;-89
2021/08/31 09:41:00;;;;;;;3.87;2.85;;;;;;;16.03;89.68;99756.25;2111512;83;21088;-88
2021/08/31 09:44:14;;;;;;;3.27;2.98;;;;;;;16.05;89.63;99759.54;2110690;83;21044;-89
2021/08/31 09:47:16;;;;;;;3.67;3.12;;;;;;;16.06;89.52;99763.85;2142031;81;21474;-88
2021/08/31 09:50:37;;;;;;;3.00;2.80;;;;;;;16.02;89.32;99763.13;2149542;81;20993;-86
2021/08/31 09:53:40;;;;;;;4.20;3.60;;;;;;;15.96;89.19;99769.33;2160841;80;20986;-86
2021/08/31 09:56:41;;;;;;;3.83;3.52;;;;;;;15.90;89.24;99787.86;2164892;80;22246;-86
2021/08/31 09:59:42;;;;;;;4.87;3.52;;;;;;;15.87;89.23;99784.27;2172896;81;21545;-87
2021/08/31 10:02:48;;;;;;;3.83;3.52;;;;;;;15.83;89.24;99788.41;2168317;80;21036;-87
2021/08/31 10:05:51;;;;;;;4.83;3.45;;;;;;;15.78;89.35;99790.06;2166437;81;21284;-85
2021/08/31 10:08:52;;;;;;;3.87;3.33;;;;;;;15.72;89.17;99794.39;2165329;80;20981;-88
2021/08/31 10:11:54;;;;;;;4.78;3.70;;;;;;;15.71;89.28;99796.77;2151428;81;21011;-87
2021/08/31 10:14:58;;;;;;;4.60;3.60;;;;;;;15.67;89.34;99786.95;2151130;81;21001;-86
2021/08/31 10:18:00;;;;;;;4.03;3.60;;;;;;;15.70;89.59;99780.40;2161314;81;21010;-86
2021/08/31 10:21:09;;;;;;;4.42;3.62;;;;;;;15.74;89.62;99786.14;2146671;80;20979;-86
2021/08/31 10:24:10;;;;;;;4.40;4.00;;;;;;;15.77;89.71;99788.41;2131129;80;21001;-87
2021/08/31 10:27:40;;;;;;;4.42;4.03;;;;;;;15.78;89.82;99784.72;2133742;81;20956;-88
2021/08/31 10:30:48;;;;;;;4.00;3.70;;;;;;;15.88;89.95;99794.45;2123947;82;21063;-88
2021/08/31 10:33:50;;;;;;;5.55;4.62;;;;;;;15.98;90.06;99795.37;2151811;81;21076;-87
2021/08/31 10:37:13;;;;;;;8.33;6.37;;;;;;;16.04;89.98;99802.03;2155157;80;21020;-87
2021/08/31 10:40:42;;;;;;;5.97;5.15;;;;;;;16.05;89.71;99804.19;2153896;80;21516;-89
2021/08/31 10:43:54;;;;;;;4.10;3.65;;;;;;;15.99;89.50;99809.05;2156170;80;21054;-87
2021/08/31 10:47:05;;;;;;;3.52;3.10;;;;;;;15.94;89.43;99804.34;2156934;80;20990;-86
2021/08/31 10:50:12;;;;;;;3.83;3.50;;;;;;;15.91;89.50;99803.42;2187495;80;21551;-87
2021/08/31 10:53:28;;;;;;;3.90;3.60;;;;;;;15.96;89.88;99808.95;2153550;80;21007;-88
2021/08/31 10:56:29;;;;;;;4.65;4.15;;;;;;;16.01;89.84;99805.66;2161875;80;21528;-88
2021/08/31 10:59:34;;;;;;;4.40;4.00;;;;;;;16.04;89.78;99811.92;2190003;80;21493;-88
2021/08/31 11:02:59;;;;;;;6.08;4.55;;;;;;;16.07;89.73;99807.48;2196173;79;20987;-89
2021/08/31 11:06:26;;;;;;;4.67;4.20;;;;;;;16.07;89.64;99807.48;2184919;80;21082;-87
2021/08/31 11:09:28;;;;;;;7.60;5.33;;;;;;;15.99;89.41;99811.72;2169510;80;21013;-87
2021/08/31 11:12:30;;;;;;;8.30;5.92;;;;;;;15.88;89.39;99811.35;2170444;79;20988;-87
2021/08/31 11:15:31;;;;;;;7.92;6.08;;;;;;;15.83;89.44;99817.02;2161969;80;20969;-86
2021/08/31 11:18:35;;;;;;;6.35;4.92;;;;;;;15.77;89.50;99820.02;2172818;80;20993;-88
2021/08/31 11:21:49;;;;;;;4.45;4.05;;;;;;;15.71;89.57;99813.31;2159096;80;21044;-87
2021/08/31 11:24:54;;;;;;;5.58;4.97;;;;;;;15.65;89.63;99813.11;2165931;80;21544;-88
2021/08/31 11:28:01;;;;;;;5.40;4.78;;;;;;;15.61;89.96;99809.18;2159327;80;21028;-87
2021/08/31 11:31:12;;;;;;;5.25;4.60;;;;;;;15.57;89.81;99807.97;2192361;80;21025;-87
2021/08/31 11:34:11;;;;;;;6.85;4.40;;;;;;;15.58;89.98;99822.16;2182184;80;21069;-87
2021/08/31 11:37:12;;;;;;;5.20;4.70;;;;;;;15.54;89.98;99824.42;2154453;80;21019;-87
2021/08/31 11:40:14;;;;;;;5.30;4.80;;;;;;;15.53;90.38;99823.28;2177643;80;21011;-87
2021/08/31 11:43:16;;;;;;;15.20;5.05;;;;;;;15.47;90.04;99833.77;2159380;80;20996;-88
2021/08/31 11:46:30;;;;;;;6.15;5.55;;;;;;;15.43;90.10;99832.55;2130799;82;20965;-88
2021/08/31 11:49:32;;;;;;;7.35;5.72;;;;;;;15.39;90.16;99839.83;2163975;80;20987;-88
2021/08/31 11:52:34;;;;;;;9.03;7.45;;;;;;;15.34;90.33;99844.44;2181872;80;21048;-87
2021/08/31 11:55:36;;;;;;;7.42;6.58;;;;;;;15.31;90.43;99841.36;2177613;80;21536;-88
2021/08/31 11:58:45;;;;;;;9.15;7.00;;;;;;;15.30;90.33;99843.22;2180206;80;20983;-86
2021/08/31 12:01:47;;;;;;;8.60;7.70;;;;;;;15.26;90.43;99848.68;2181294;80;21500;-87
2021/08/31 12:04:59;;;;;;;8.15;7.35;;;;;;;15.25;90.37;99852.36;2180747;80;20975;-86
2021/08/31 12:08:01;;;;;;;9.45;8.38;;;;;;;15.22;90.54;99846.91;2176391;80;21016;-89
2021/08/31 12:11:03;;;;;;;9.50;8.60;;;;;;;15.18;90.60;99851.02;2180196;80;21430;-88
2021/08/31 12:14:05;;;;;;;10.90;8.53;;;;;;;15.16;90.60;99857.08;2185833;80;20999;-88
2021/08/31 12:17:09;;;;;;;11.68;9.03;;;;;;;15.14;90.51;99855.11;2189445;80;22768;-87
2021/08/31 12:20:18;;;;;;;14.98;9.30;;;;;;;15.13;90.72;99861.49;2158368;81;20994;-88
2021/08/31 12:23:30;;;;;;;14.75;10.38;;;;;;;15.10;90.52;99861.90;2173685;80;21105;-91
2021/08/31 12:26:36;;;;;;;11.00;9.03;;;;;;;15.11;90.66;99866.72;2160318;80;21033;-89
2021/08/31 12:29:54;;;;;;;9.20;7.35;;;;;;;15.10;90.87;99869.91;2170529;80;21447;-89
2021/08/31 12:32:57;;;;;;;8.80;7.67;;;;;;;15.08;91.24;99867.95;2175364;80;20979;-88
2021/08/31 12:36:08;;;;;;;8.75;7.62;;;;;;;15.09;91.32;99862.94;2179287;79;20994;-90
2021/08/31 12:39:15;;;;;;;10.88;8.38;;;;;;;15.12;91.30;99863.02;2148898;80;21003;-88
2021/08/31 12:42:18;;;;;;;9.93;8.38;;;;;;;15.17;91.34;99864.05;2151487;81;21025;-90
2021/08/31 12:45:27;;;;;;;10.72;8.28;;;;;;;15.25;91.28;99865.72;2163110;80;20993;-88
2021/08/31 12:48:42;;;;;;;9.48;8.45;;;;;;;15.33;91.29;99852.69;2184936;80;20944;-88
2021/08/31 12:51:50;;;;;;;10.88;7.87;;;;;;;15.35;91.07;99865.34;2148262;81;21005;-88
2021/08/31 12:54:52;;;;;;;11.57;8.38;;;;;;;15.35;90.90;99861.33;2147168;81;20998;-88
2021/08/31 12:57:53;;;;;;;7.60;6.70;;;;;;;15.33;90.87;99870.06;2160161;81;20975;-89
2021/08/31 13:01:17;;;;;;;7.20;6.50;;;;;;;15.30;90.81;99871.80;2142834;81;20991;-89
2021/08/31 13:04:19;;;;;;;7.72;6.75;;;;;;;15.30;91.10;99873.14;2144898;81;21051;-90
2021/08/31 13:07:20;;;;;;;9.85;5.90;;;;;;;15.27;90.89;99876.22;2157070;80;21001;-88
2021/08/31 13:10:21;;;;;;;7.03;6.05;;;;;;;15.23;90.70;99875.30;2144552;81;21577;-88
2021/08/31 13:13:30;;;;;;;6.10;5.08;;;;;;;15.24;90.81;99877.45;2156225;79;21004;-88
2021/08/31 13:16:32;;;;;;;6.10;5.12;;;;;;;15.24;90.83;99876.93;2169742;80;21013;-89
2021/08/31 13:19:34;;;;;;;6.78;5.08;;;;;;;15.20;90.59;99882.38;2152377;80;21069;-88
2021/08/31 13:22:35;;;;;;;6.75;5.53;;;;;;;15.14;90.22;99876.48;2154639;81;21019;-89
2021/08/31 13:25:37;;;;;;;6.60;5.28;;;;;;;15.12;90.26;99877.23;2148166;80;21489;-90
2021/08/31 13:28:38;;;;;;;7.47;6.42;;;;;;;15.09;90.16;99881.64;2186583;80;21042;-90
2021/08/31 13:31:41;;;;;;;7.40;6.70;;;;;;;15.05;90.03;99879.05;2181511;80;21009;-89
2021/08/31 13:34:42;;;;;;;8.65;6.35;;;;;;;15.05;90.01;99879.05;2169461;81;20969;-89
2021/08/31 13:37:44;;;;;;;8.73;7.60;;;;;;;15.09;89.97;99879.45;2158286;80;21035;-88
2021/08/31 13:40:46;;;;;;;10.53;8.08;;;;;;;15.11;89.87;99885.43;2177319;80;21026;-88
2021/08/31 13:43:48;;;;;;;12.53;8.00;;;;;;;15.14;90.02;99877.00;2181333;80;21046;-90
2021/08/31 13:46:50;;;;;;;16.95;10.40;;;;;;;15.14;89.96;99883.17;2185483;79;21034;-91
2021/08/31 13:49:51;;;;;;;15.70;10.85;;;;;;;15.15;89.83;99884.83;2172101;80;21075;-88
2021/08/31 13:52:52;;;;;;;21.00;11.78;;;;;;;15.17;89.71;99889.96;2127514;82;21007;-88
2021/08/31 13:55:54;;;;;;;15.70;11.22;;;;;;;15.18;89.77;99884.95;2146006;80;20967;-89
2021/08/31 13:58:55;;;;;;;17.32;10.82;;;;;;;15.18;89.71;99892.45;2180025;80;21038;-89
2021/08/31 14:01:57;;;;;;;12.85;9.93;;;;;;;15.20;89.63;99900.24;2162797;80;20987;-91
2021/08/31 14:04:58;;;;;;;13.75;10.03;;;;;;;15.19;89.53;99889.25;2152930;81;21007;-90
2021/08/31 14:08:00;;;;;;;11.65;9.20;;;;;;;15.17;89.53;99901.47;2175234;80;20999;-88
2021/08/31 14:11:01;;;;;;;14.20;10.58;;;;;;;15.17;89.51;99904.66;2180215;80;21477;-90
2021/08/31 14:14:03;;;;;;;15.90;11.15;;;;;;;15.15;89.63;99898.72;2182977;80;21521;-89
2021/08/31 14:17:04;;;;;;;14.75;10.60;;;;;;;15.16;89.66;99914.53;2176324;80;21006;-89
2021/08/31 14:20:08;;;;;;;12.10;9.38;;;;;;;15.13;89.92;99904.25;2185734;80;21409;-90